EST,Max TemperatureF,Mean TemperatureF,Min TemperatureF,Max Dew PointF,MeanDew PointF,Min DewpointF,Max Humidity, Mean Humidity, Min Humidity, Max Sea Level PressureIn, Mean Sea Level PressureIn, Min Sea Level PressureIn, Max VisibilityMiles, Mean VisibilityMiles, Min VisibilityMiles, Max Wind SpeedMPH, Mean Wind SpeedMPH, Max Gust SpeedMPH,PrecipitationIn, CloudCover, Events, WindDirDegrees
2013-11-1,69,62,55,58,54,48,100,79,58,29.74,29.52,29.37,10,9,4,24,13,33,0.11,5,Rain,201
2013-11-2,65,54,42,47,42,39,89,65,40,29.74,29.64,29.58,10,10,7,20,7,27,0.06,3,Rain,258
2013-11-3,46,39,31,41,26,16,85,63,40,30.41,30.10,29.78,10,10,10,18,12,26,T,5,Rain,353
2013-11-4,42,32,22,20,16,14,81,57,32,30.71,30.63,30.45,10,10,10,17,6,21,0.00,0,,331
2013-11-5,47,35,22,33,26,18,92,71,49,30.72,30.64,30.51,10,10,10,13,5,19,0.00,1,,233
2013-11-6,55,46,36,48,39,31,85,74,63,30.49,30.28,29.99,10,10,10,17,8,23,0.00,0,,198
2013-11-7,61,52,42,55,45,28,93,75,57,29.97,29.76,29.64,10,10,9,20,9,28,0.01,7,Rain,254
2013-11-8,48,40,31,26,23,21,72,57,41,30.01,29.88,29.78,10,10,10,21,9,28,0.00,5,,286
2013-11-9,46,39,32,27,20,18,56,47,37,30.14,30.09,30.02,10,10,10,18,7,23,0.00,4,,253
2013-11-10,44,40,35,40,35,29,92,76,59,30.02,29.82,29.72,10,10,5,15,5,21,0.05,6,Rain,256
2013-11-11,46,41,35,33,28,24,73,59,45,30.03,29.93,29.76,10,10,10,18,8,22,0.00,4,,259
2013-11-12,44,34,24,33,18,12,64,54,43,30.13,30.01,29.83,10,10,8,22,11,31,T,4,Rain,290
2013-11-13,36,27,17,14,11,9,80,58,35,30.25,30.18,30.09,10,10,10,16,6,21,0.00,0,,254
2013-11-14,50,39,28,26,21,11,78,57,36,30.08,30.03,29.99,10,10,10,17,8,21,0.00,0,,244
2013-11-15,53,39,24,31,23,17,82,54,26,30.17,30.13,30.08,10,10,10,13,4,17,0.00,0,,228
2013-11-16,53,42,30,35,30,26,100,73,46,30.35,30.29,30.17,10,7,1,8,2,9,0.00,4,,307
2013-11-17,52,42,32,51,41,31,100,90,80,30.35,30.24,29.91,10,4,0,14,5,21,0.25,8,Fog-Rain,98
2013-11-18,64,55,46,57,47,33,100,72,43,29.89,29.61,29.48,10,6,0,23,11,32,0.31,6,Fog-Rain,206
2013-11-19,47,39,30,31,19,12,59,48,37,30.23,29.91,29.60,10,10,10,26,15,36,0.00,2,,301
2013-11-20,41,32,22,14,11,7,55,40,25,30.63,30.48,30.25,10,10,10,26,9,38,0.00,0,,315
2013-11-21,48,34,19,18,13,6,77,49,20,30.64,30.53,30.35,10,10,10,9,4,14,0.00,0,,232
2013-11-22,40,36,32,35,29,18,85,68,51,30.33,30.09,29.79,10,10,10,7,2,10,0.03,7,Rain,295
2013-11-23,43,35,27,38,24,12,92,61,29,29.83,29.76,29.70,10,9,1,28,12,37,T,3,Snow,266
2013-11-24,28,24,19,15,3,-1,63,48,33,30.05,29.83,29.70,10,10,10,33,20,43,0.00,1,,297
2013-11-25,31,24,17,9,-1,-6,49,35,21,30.31,30.24,30.08,10,10,10,28,10,39,0.00,1,,261
2013-11-26,34,31,27,31,22,9,92,66,39,30.32,30.26,30.14,10,7,1,12,5,17,0.06,8,Rain-Snow,233
2013-11-27,58,46,33,57,45,31,100,95,89,30.13,29.50,29.18,10,4,0,30,13,42,2.48,8,Fog-Rain,272
2013-11-28,40,29,18,35,16,3,85,60,34,30.40,29.90,29.31,10,10,10,29,15,37,0.00,3,,273
2013-11-29,30,22,14,11,7,0,73,51,29,30.75,30.57,30.41,10,10,10,17,6,23,0.00,0,,313
2013-11-30,30,21,12,19,12,6,81,64,46,30.82,30.69,30.43,10,10,10,10,3,16,T,3,,311